Latest Weather Observations for Norfolk Island

IDN60801

Issued at 12:05 pm EST Sunday 31 August 2014 (issued every 30 minutes, with the page automatically refreshed every 10 minutes)

About weather observations | Map of weather stations | Latest weather observations for NSW | Other Formats
Station Details ID: 200288 Name: NORFOLK ISLAND AERO Lat: -29.04 Lon: 167.94 Height: 111.73 m
Data from the previous 72 hours. | See also: Recent months at Norfolk Island
Date/Time
EST
Temp
°C
App
Temp
°C
Dew
Point
Rel
Hum
%
Delta-T
°C
Wind Press
QNH
hPa
Press
MSL
hPa
Rain
since 9 am
mm
Dir
 
Spd
km/h
Gust
km/h
Spd
kts
Gust
kts
31/12:00pm 19.6 17.7 14.1 70 3.2 N 17 28 9 15 1013.0 - 0.2
31/11:30am 19.2 16.7 13.6 70 3.2 N 19 32 10 17 1013.2 - 0.2
31/11:00am 19.4 16.8 13.9 70 3.2 N 20 30 11 16 1013.6 - 0.2
31/10:30am 19.6 17.8 13.3 67 3.6 N 15 24 8 13 1014.1 1013.9 0.0
31/10:00am 19.8 17.1 13.5 67 3.6 N 20 32 11 17 1014.4 - 0.0
31/09:30am 18.8 16.6 12.2 65 3.7 N 15 30 8 16 1014.6 - 0.0
31/09:00am 18.6 16.9 12.3 67 3.5 NNW 13 22 7 12 1014.8 - 0.0
31/08:30am 18.6 16.4 12.1 66 3.6 NNW 15 24 8 13 1015.0 - 0.0
31/08:00am 18.8 17.0 12.2 65 3.7 N 13 17 7 9 1015.2 - 0.0
31/07:30am 18.5 17.2 12.4 67 3.4 NNW 11 15 6 8 1015.1 1014.9 0.0
31/07:00am 17.9 17.0 12.7 71 2.9 NNW 9 13 5 7 1015.0 - 0.0
31/06:30am 17.3 16.9 13.0 76 2.4 N 7 11 4 6 1014.8 - 0.0
31/06:00am 16.5 16.1 12.9 79 2.0 N 7 11 4 6 1014.5 - 0.0
31/05:30am 15.3 14.7 12.2 82 1.7 N 7 9 4 5 1014.4 - 0.0
31/05:00am 15.0 14.5 12.1 83 1.6 N 6 9 3 5 1014.2 - 0.0
31/04:30am 15.0 14.5 12.1 83 1.6 N 6 9 3 5 1013.9 1013.8 0.0
31/04:00am 14.7 13.6 12.1 84 1.4 N 9 13 5 7 1013.8 - 0.0
31/03:30am 14.4 13.7 12.0 85 1.3 NNW 7 9 4 5 1013.7 - 0.0
31/03:00am 14.3 13.6 12.1 87 1.2 NW 7 11 4 6 1013.7 - 0.0
31/02:30am 14.3 13.3 12.3 88 1.1 WNW 9 11 5 6 1013.5 - 0.0
31/02:00am 14.1 13.1 12.3 89 1.0 NW 9 11 5 6 1013.5 - 0.0
31/01:30am 14.6 13.2 12.2 85 1.3 WNW 11 17 6 9 1013.6 1013.5 0.0
31/01:00am 14.1 13.0 12.1 88 1.1 WNW 9 13 5 7 1013.9 - 0.0
31/12:30am 13.9 13.3 12.2 89 0.9 NW 7 11 4 6 1014.2 - 0.0
31/12:00am 14.1 13.1 12.3 89 1.0 NW 9 13 5 7 1014.4 - 0.0
 
Date/Time
EST
Temp
°C
App
Temp
°C
Dew
Point
Rel
Hum
%
Delta-T
°C
Wind Press
QNH
hPa
Press
MSL
hPa
Rain
since 9 am
mm
Dir
 
Spd
km/h
Gust
km/h
Spd
kts
Gust
kts
30/11:30pm 13.9 12.9 12.4 91 0.8 NW 9 13 5 7 1014.7 - 0.0
30/11:00pm 13.8 12.4 12.3 91 0.8 NW 11 13 6 7 1014.8 - 0.0
30/10:30pm 13.8 12.4 12.1 89 0.9 NW 11 11 6 6 1014.9 1014.7 0.0
30/10:00pm 14.2 13.2 12.4 89 1.0 WNW 9 11 5 6 1014.9 - 0.0
30/09:30pm 14.5 13.9 12.3 87 1.2 NNW 7 9 4 5 1014.9 - 0.0
30/09:00pm 13.9 12.8 12.1 89 1.0 NW 9 9 5 5 1015.0 - 0.0
30/08:30pm 14.4 13.8 12.2 87 1.2 N 7 7 4 4 1015.0 - 0.0
30/08:00pm 14.2 14.9 12.2 88 1.1 CALM 0 0 0 0 1015.0 - 0.0
30/07:30pm 14.7 15.0 12.3 85 1.3 N 2 6 1 3 1014.9 1014.7 0.0
30/07:00pm 14.8 14.2 12.4 85 1.3 W 7 7 4 4 1014.9 - 0.0
30/06:30pm 14.6 14.0 12.4 87 1.2 W 7 9 4 5 1014.8 - 0.0
30/06:00pm 15.1 13.8 12.4 84 1.5 WSW 11 13 6 7 1014.6 - 0.0
30/05:30pm 15.6 14.7 12.7 83 1.6 W 9 9 5 5 1014.4 - 0.0
30/05:00pm 15.7 14.7 12.4 81 1.8 WSW 9 13 5 7 1014.3 - 0.0
30/04:30pm 16.5 15.1 12.3 76 2.3 W 11 13 6 7 1013.9 1013.8 0.0
30/04:00pm 17.6 15.8 12.2 70 3.0 W 13 15 7 8 1013.9 - 0.0
30/03:30pm 18.2 16.6 12.7 70 3.1 W 13 17 7 9 1013.8 - 0.0
30/03:00pm 18.4 16.5 13.1 71 3.0 W 15 22 8 12 1013.7 - 0.0
30/02:30pm 18.7 16.5 13.2 70 3.1 WSW 17 24 9 13 1013.6 - 0.0
30/02:00pm 19.2 17.9 14.8 75 2.6 W 15 19 8 10 1013.6 - 0.0
30/01:30pm 18.6 17.1 14.1 75 2.6 W 15 20 8 11 1013.6 1013.5 0.0
30/01:00pm 18.9 17.5 14.6 76 2.5 WSW 15 19 8 10 1013.6 - 0.0
30/12:30pm 19.0 17.9 14.2 73 2.8 WSW 13 19 7 10 1013.9 - 0.0
30/12:00pm 19.2 17.8 13.4 69 3.3 W 13 19 7 10 1014.2 - 0.0
30/11:30am 18.5 16.7 14.5 77 2.3 WSW 17 22 9 12 1014.5 - 0.0
30/11:00am 18.7 17.2 13.2 70 3.1 WSW 13 22 7 12 1014.8 - 0.0
30/10:30am 18.6 17.8 15.2 80 2.0 WSW 13 17 7 9 1015.1 1014.9 0.0
30/10:00am 18.3 17.4 13.8 75 2.6 SW 11 17 6 9 1015.3 - 0.0
30/09:30am 19.3 18.5 13.9 71 3.1 W 11 15 6 8 1015.6 - 0.0
30/09:00am 19.0 18.3 14.3 74 2.7 W 11 15 6 8 1015.9 - 0.0
30/08:29am 17.9 17.5 15.2 84 1.6 WSW 11 13 6 7 1016.1 - 0.0
30/07:57am 18.4 18.8 15.3 82 1.8 W 7 13 4 7 1016.2 - 0.0
30/07:30am 17.0 17.2 14.8 87 1.3 W 7 9 4 5 1016.3 1016.1 0.2
30/07:00am 17.4 16.8 14.5 83 1.7 WNW 11 13 6 7 1016.0 - 0.2
30/06:30am 17.0 16.9 14.9 87 1.2 WNW 9 15 5 8 1015.8 - 0.2
30/06:00am 17.2 17.2 15.1 87 1.2 NNW 9 11 5 6 1015.5 - 0.2
30/05:30am 16.5 16.7 14.8 90 1.0 N 7 13 4 7 1015.2 - 0.2
30/05:00am 15.9 16.0 14.5 91 0.8 N 7 11 4 6 1014.9 - 0.2
30/04:30am 15.9 16.2 15.0 94 0.5 NNE 7 9 4 5 1014.7 1014.5 0.2
30/04:00am 16.1 16.4 14.9 93 0.7 NNE 7 11 4 6 1014.5 - 0.2
30/03:30am 16.0 15.8 14.8 93 0.7 NNE 9 13 5 7 1014.3 - 0.2
30/03:00am 16.1 15.7 14.2 88 1.1 N 9 13 5 7 1014.3 - 0.2
30/02:30am 16.0 15.7 14.4 90 0.9 N 9 13 5 7 1014.5 - 0.2
30/02:00am 16.0 16.3 14.4 90 0.9 N 6 9 3 5 1014.6 - 0.0
30/01:30am 16.1 16.4 14.4 90 1.0 N 6 9 3 5 1014.8 1014.6 0.0
30/01:00am 15.9 15.9 14.3 90 0.9 N 7 11 4 6 1015.1 - 0.0
30/12:30am 15.9 16.0 14.5 91 0.8 N 7 9 4 5 1015.3 - 0.0
30/12:00am 15.8 15.7 14.0 89 1.0 NNW 7 9 4 5 1015.5 - 0.0
 
Date/Time
EST
Temp
°C
App
Temp
°C
Dew
Point
Rel
Hum
%
Delta-T
°C
Wind Press
QNH
hPa
Press
MSL
hPa
Rain
since 9 am
mm
Dir
 
Spd
km/h
Gust
km/h
Spd
kts
Gust
kts
29/11:30pm 15.8 15.6 13.7 87 1.2 N 7 9 4 5 1015.7 - 0.0
29/11:00pm 16.0 15.8 13.7 86 1.3 N 7 9 4 5 1015.7 - 0.0
29/10:30pm 16.1 16.0 13.4 84 1.5 N 6 9 3 5 1015.9 1015.7 0.0
29/10:00pm 16.0 15.8 13.7 86 1.3 N 7 9 4 5 1015.9 - 0.0
29/09:30pm 15.8 15.7 13.9 88 1.1 N 7 11 4 6 1015.8 - 0.0
29/09:00pm 15.6 15.6 13.6 88 1.1 N 6 7 3 4 1015.9 - 0.0
29/08:30pm 15.5 15.3 13.7 89 1.0 N 7 9 4 5 1015.9 - 0.0
29/08:00pm 15.4 15.5 14.0 91 0.8 NNW 6 9 3 5 1016.2 - 0.0
29/07:30pm 15.3 15.2 13.9 91 0.8 NW 7 9 4 5 1016.3 1016.1 0.0
29/07:00pm 15.7 15.8 14.5 93 0.7 NNW 7 9 4 5 1016.2 - 0.0
29/06:30pm 15.5 15.5 14.3 92 0.7 NW 7 9 4 5 1015.9 - 0.0
29/06:00pm 15.8 15.9 14.4 91 0.8 NW 7 13 4 7 1015.8 - 0.0
29/05:30pm 16.1 16.2 14.5 90 0.9 NW 7 9 4 5 1015.5 - 0.0
29/05:00pm 16.8 16.6 14.7 87 1.2 WNW 9 13 5 7 1015.3 - 0.0
29/04:30pm 17.5 17.3 14.7 83 1.6 NW 9 13 5 7 1015.3 1015.1 0.0
29/04:00pm 18.2 16.8 14.6 79 2.1 WNW 15 22 8 12 1015.0 - 0.0
29/03:30pm 18.6 16.8 14.5 77 2.4 NW 17 24 9 13 1014.8 - 0.0
29/03:00pm 19.0 17.1 14.3 74 2.7 WNW 17 24 9 13 1014.7 - 0.0
29/02:30pm 19.3 17.5 14.5 74 2.8 WNW 17 24 9 13 1014.5 - 0.0
29/02:00pm 19.7 18.1 15.9 79 2.3 WNW 19 24 10 13 1014.3 - 0.0
29/01:30pm 19.8 18.0 15.4 76 2.6 WNW 19 24 10 13 1014.4 1014.2 0.0
29/01:00pm 20.0 19.2 16.0 78 2.4 NW 15 22 8 12 1014.6 - 0.0
29/12:30pm 19.1 18.3 15.2 78 2.3 NNW 13 19 7 10 1014.8 - 0.0
29/12:00pm 19.6 18.5 15.2 76 2.6 NW 15 26 8 14 1014.8 - 0.0
29/11:30am 20.7 19.5 16.0 74 2.8 NW 17 28 9 15 1015.2 - 0.0
29/11:00am 20.5 18.5 15.6 73 2.9 NW 20 32 11 17 1015.5 - 0.0
29/10:30am 20.0 18.0 15.5 75 2.7 NW 20 30 11 16 1015.7 1015.5 0.0
29/10:00am 20.5 19.1 15.5 73 3.0 NW 17 30 9 16 1015.9 - 0.0
29/09:30am 19.7 18.0 14.6 72 3.0 NNW 17 28 9 15 1016.2 - 0.0
29/09:00am 19.8 18.2 14.9 73 2.9 NNW 17 30 9 16 1016.3 - 0.0
29/08:30am 19.8 18.7 15.4 76 2.6 NNW 15 26 8 14 1016.5 - 0.0
29/08:00am 19.4 18.3 15.3 77 2.4 NNW 15 26 8 14 1016.7 - 0.0
29/07:30am 19.0 18.4 14.7 76 2.5 NNW 11 17 6 9 1016.6 1016.4 4.2
29/07:00am 18.3 17.3 13.4 73 2.8 NNW 11 17 6 9 1016.5 - 4.2
29/06:30am 17.7 17.5 13.7 77 2.3 NNW 7 15 4 8 1016.2 - 4.2
29/06:00am 15.9 14.7 12.7 81 1.8 NNW 11 19 6 10 1016.0 - 4.2
29/05:30am 15.4 14.8 13.4 88 1.1 NNW 9 11 5 6 1015.6 - 4.2
29/05:00am 15.8 15.2 14.6 93 0.7 NNW 11 17 6 9 1015.5 - 4.2
29/04:53am 15.7 15.1 14.5 93 0.7 NNW 11 17 6 9 1015.5 - 4.2
29/04:31am 15.8 13.6 14.4 91 0.8 NW 19 28 10 15 1015.6 - 3.6
29/04:30am 15.8 13.5 14.6 93 0.7 WNW 20 28 11 15 1015.6 1015.4 3.6
29/04:00am 17.4 17.8 16.4 94 0.6 N 9 15 5 8 1015.1 - 3.4
29/03:30am 17.4 18.2 16.4 94 0.6 N 7 17 4 9 1014.8 - 3.4
29/03:00am 17.5 18.0 16.5 94 0.6 NNW 9 17 5 9 1014.9 - 3.4
29/02:30am 17.1 17.8 16.1 94 0.6 NNW 7 13 4 7 1015.0 - 3.4
29/02:00am 17.0 16.8 15.6 91 0.8 NNW 11 22 6 12 1015.1 - 3.4
29/01:46am 16.6 16.0 14.5 87 1.2 NNW 11 15 6 8 1015.1 - 3.4
29/01:42am 16.4 15.8 14.5 88 1.1 NNW 11 15 6 8 1015.1 - 3.4
29/01:30am 16.3 15.2 15.3 94 0.6 NNW 15 20 8 11 1015.3 1015.1 3.4
29/01:00am 16.5 18.2 15.1 91 0.8 CALM 0 0 0 0 1015.4 - 0.4
29/12:57am 16.5 18.2 15.1 91 0.8 CALM 0 6 0 3 1015.4 - 0.4
29/12:30am 16.8 16.3 16.0 95 0.5 NE 13 19 7 10 1015.5 - 0.0
29/12:00am 17.6 17.9 16.9 96 0.4 NE 11 13 6 7 1015.6 - 0.0
 
Date/Time
EST
Temp
°C
App
Temp
°C
Dew
Point
Rel
Hum
%
Delta-T
°C
Wind Press
QNH
hPa
Press
MSL
hPa
Rain
since 9 am
mm
Dir
 
Spd
km/h
Gust
km/h
Spd
kts
Gust
kts
28/11:59pm 17.6 17.9 16.9 96 0.4 NE 11 17 6 9 1015.6 - 0.0
28/11:41pm 17.6 17.5 16.9 96 0.4 NE 13 17 7 9 1015.7 - 0.0
28/11:30pm 17.7 17.6 17.0 96 0.4 NE 13 22 7 12 1015.8 - 0.0
28/11:21pm 17.7 17.7 17.2 97 0.3 NE 13 17 7 9 1015.7 - 0.0
28/11:17pm 17.7 17.6 17.0 96 0.4 ENE 13 19 7 10 1015.7 - 0.0
28/11:00pm 17.7 18.1 17.2 97 0.3 NE 11 15 6 8 1015.9 - 0.0
28/10:45pm 17.8 18.1 17.1 96 0.4 NE 11 15 6 8 1016.1 - 0.0
28/10:41pm 17.8 17.8 17.1 96 0.4 NE 13 15 7 8 1016.1 - 0.0
28/10:30pm 17.7 17.3 17.2 97 0.3 NE 15 19 8 10 1016.2 1016.0 0.0
28/10:00pm 17.5 17.3 16.8 96 0.4 NE 13 17 7 9 1016.3 - 0.0
28/09:56pm 17.4 17.3 16.9 97 0.3 NE 13 17 7 9 1016.3 - 0.0
28/09:30pm 17.4 16.9 16.9 97 0.3 ENE 15 19 8 10 1016.3 - 0.0
28/09:00pm 17.5 17.4 17.0 97 0.3 NE 13 17 7 9 1016.6 - 0.0
28/08:30pm 17.4 16.9 16.9 97 0.3 NE 15 19 8 10 1016.8 - 0.0
28/08:00pm 17.5 16.7 17.2 98 0.2 NE 17 22 9 12 1016.8 - 0.0
28/07:43pm 17.6 16.8 17.1 97 0.3 NE 17 22 9 12 1017.0 - 0.0
28/07:30pm 17.7 17.0 17.4 98 0.2 NE 17 22 9 12 1016.9 1016.7 0.0
28/07:00pm 17.7 16.6 17.2 97 0.3 NE 19 26 10 14 1016.8 - 0.0
28/06:35pm 17.6 16.4 17.1 97 0.3 NE 19 26 10 14 1016.6 - 0.0
28/06:30pm 17.5 16.7 17.0 97 0.3 NE 17 22 9 12 1016.7 - 0.0
28/06:15pm 17.5 16.7 17.0 97 0.3 NE 17 24 9 13 1016.6 - 0.0
28/06:00pm 17.4 16.5 16.9 97 0.3 NE 17 24 9 13 1016.5 - 0.0
28/05:48pm 17.5 16.7 17.0 97 0.3 NE 17 22 9 12 1016.5 - 0.0
28/05:27pm 17.7 16.9 17.2 97 0.3 NE 17 26 9 14 1016.3 - 0.0
28/05:03pm 17.7 17.3 17.2 97 0.3 NE 15 19 8 10 1016.1 - 0.0
28/05:00pm 17.8 17.4 17.1 96 0.4 NE 15 19 8 10 1016.1 - 0.0
28/04:46pm 17.9 17.5 17.1 95 0.5 NE 15 19 8 10 1016.1 - 0.0
28/04:30pm 17.9 17.8 16.9 94 0.6 NE 13 15 7 8 1015.9 1015.7 0.0
28/04:25pm 17.9 18.2 16.9 94 0.6 NE 11 15 6 8 1015.9 - 0.0
28/04:00pm 18.4 18.2 16.7 90 1.0 NE 13 17 7 9 1015.7 - 0.0
28/03:30pm 18.8 18.6 16.8 88 1.2 NNE 13 19 7 10 1015.7 - 0.0
28/03:00pm 19.5 18.8 16.5 83 1.8 NE 15 19 8 10 1015.5 - 0.0
28/02:30pm 19.8 19.4 16.3 80 2.1 NE 13 19 7 10 1015.5 - 0.0
28/02:00pm 20.2 19.8 16.2 78 2.4 NNE 13 19 7 10 1015.2 - 0.0
28/01:30pm 20.0 19.2 16.2 79 2.3 NNE 15 19 8 10 1015.3 1015.1 0.0
28/01:00pm 20.9 21.0 16.4 75 2.7 N 11 19 6 10 1015.5 - 0.0
28/12:30pm 20.4 20.0 16.1 76 2.6 NNW 13 24 7 13 1015.7 - 0.0
28/12:00pm 20.7 19.2 16.8 78 2.4 NNE 20 24 11 13 1015.6 - 0.0
28/11:47am 20.7 20.1 16.6 77 2.5 N 15 24 8 13 1015.6 - 0.0
28/11:30am 20.5 20.2 16.4 77 2.5 N 13 19 7 10 1015.8 - 0.0
28/11:00am 20.5 20.0 15.8 74 2.8 NNW 13 20 7 11 1015.9 - 0.0

Other Formats:

Comma delimited format used in spreadsheet applications
http://www.bom.gov.au/fwo/IDN60801/IDN60801.94996.axf

JavaScript Object Notation format (JSON) in row-major order
http://www.bom.gov.au/fwo/IDN60801/IDN60801.94996.json